Weather History for Sidney-Richland, MT

Change the Weather History Date:

Thursday, January 17, 2013

  Actual Average Record
Temperature  
Mean Temperature 32 °F -  
Max Temperature 37 °F 26 °F 49 °F (1974)
Min Temperature 28 °F 3 °F -36 °F (1967)
Degree Days  
Heating Degree Days 32    
Moisture  
Dew Point 28 °F    
Average Humidity 81    
Maximum Humidity 93    
Minimum Humidity 75    
Precipitation  
Precipitation 0.00 in - - ()
Sea Level Pressure  
Sea Level Pressure 30.13 in    
Wind  
Wind Speed 8 mph (South)    
Max Wind Speed 14 mph    
Max Gust Speed -    
Visibility 10 miles    
Events      
Averages and records for this station are not official NWS values.
T = Trace of Precipitation, MM = Missing Value Source: NWS Daily Summary

Daily Weather History Graph

Daily Weather History Graph

Search for Another Location

Airport:

Trip Planner

Search our weather history database for the weather conditions in past years. The results will help you decide how hot, cold, wet, or windy it might be!

Date:

Astronomy

Jan. 17, 2013 Rise Set
Actual Time 7:38 AM MST 4:35 PM MST
Civil Twilight 7:04 AM MST 5:10 PM MST
Nautical Twilight 6:26 AM MST 5:48 PM MST
Astronomical Twilight 5:49 AM MST 6:25 PM MST
Moon 10:15 AM MST (1/17) No Moon Set
Length of Visible Light 10h 05m
Length of Day
8h 56m
Waxing Crescent, 38% of the Moon is Illuminated
Jan 17
Waxing Crescent
Jan 18
First Quarter
Jan 26
Full
Feb 3
Last Quarter
Feb 10
New

Hourly Weather History & Observations

Time (MST) Temp. Windchill Dew Point Humidity Pressure Visibility Wind Dir Wind Speed Gust Speed Precip Events Conditions
12:15 AM 35.6 °F 27.5 °F 30.2 °F 81% 30.24 in 10.0 mi WNW 11.5 mph - N/A   Overcast
12:35 AM 35.6 °F 28.0 °F 30.2 °F 81% 30.24 in 10.0 mi NW 10.4 mph - N/A   Overcast
12:55 AM 35.6 °F 29.9 °F 30.2 °F 81% 30.25 in 10.0 mi NW 6.9 mph - N/A   Overcast
1:15 AM 35.6 °F 29.2 °F 30.2 °F 81% 30.26 in 10.0 mi WNW 8.1 mph - N/A   Overcast
1:35 AM 35.6 °F 28.6 °F 28.4 °F 75% 30.27 in 10.0 mi NW 9.2 mph - N/A   Overcast
1:55 AM 35.6 °F 27.5 °F 28.4 °F 75% 30.27 in 10.0 mi NW 11.5 mph - N/A   Overcast
2:35 AM 33.8 °F 25.3 °F 28.4 °F 81% 30.28 in 10.0 mi NW 11.5 mph - N/A   Overcast
2:55 AM 33.8 °F 24.3 °F 28.4 °F 81% 30.28 in 10.0 mi NW 13.8 mph - N/A   Overcast
3:15 AM 33.8 °F 25.3 °F 26.6 °F 75% 30.28 in 10.0 mi NNW 11.5 mph - N/A   Mostly Cloudy
3:35 AM 32.0 °F 23.6 °F 26.6 °F 80% 30.29 in 10.0 mi NNW 10.4 mph - N/A   Overcast
3:55 AM 32.0 °F 24.2 °F 26.6 °F 80% 30.29 in 10.0 mi NNW 9.2 mph - N/A   Overcast
4:15 AM 32.0 °F 24.2 °F 26.6 °F 80% 30.30 in 10.0 mi North 9.2 mph - N/A   Overcast
4:35 AM 32.0 °F - 26.6 °F 80% 30.30 in 10.0 mi Calm Calm - N/A   Overcast
4:55 AM 30.2 °F 24.3 °F 24.8 °F 80% 30.31 in 10.0 mi North 5.8 mph - N/A   Overcast
5:15 AM 28.4 °F 22.2 °F 24.8 °F 86% 30.30 in 10.0 mi North 5.8 mph - N/A   Overcast
5:35 AM 28.4 °F 20.4 °F 24.8 °F 86% 30.30 in 10.0 mi North 8.1 mph - N/A   Overcast
5:56 AM 28.4 °F 23.3 °F 24.8 °F 86% 30.30 in 10.0 mi North 4.6 mph - N/A   Overcast
6:15 AM 28.4 °F 20.4 °F 24.8 °F 86% 30.30 in 10.0 mi North 8.1 mph - N/A   Overcast
6:35 AM 28.4 °F 23.3 °F 24.8 °F 86% 30.29 in 10.0 mi NE 4.6 mph - N/A   Overcast
7:15 AM 30.2 °F 25.4 °F 23.0 °F 75% 30.29 in 10.0 mi NE 4.6 mph - N/A   Overcast
7:35 AM 30.2 °F 26.7 °F 24.8 °F 80% 30.30 in 10.0 mi NE 3.5 mph - N/A   Overcast
8:15 AM 28.4 °F - 24.8 °F 86% 30.31 in 10.0 mi Calm Calm - N/A   Overcast
8:35 AM 28.4 °F 22.2 °F 24.8 °F 86% 30.30 in 10.0 mi ESE 5.8 mph - N/A   Overcast
8:55 AM 28.4 °F 23.3 °F 24.8 °F 86% 30.31 in 10.0 mi SE 4.6 mph - N/A   Overcast
9:15 AM 28.4 °F 22.2 °F 24.8 °F 86% 30.30 in 10.0 mi SE 5.8 mph - N/A   Overcast
9:35 AM 28.4 °F 24.6 °F 24.8 °F 86% 30.30 in 10.0 mi ESE 3.5 mph - N/A   Overcast
9:55 AM 30.2 °F 24.3 °F 24.8 °F 80% 30.28 in 10.0 mi SE 5.8 mph - N/A   Overcast
10:15 AM 30.2 °F 25.4 °F 24.8 °F 80% 30.26 in 10.0 mi SSE 4.6 mph - N/A   Overcast
10:35 AM 30.2 °F 26.7 °F 26.6 °F 86% 30.26 in 10.0 mi SSE 3.5 mph - N/A   Overcast
10:55 AM 32.0 °F - 26.6 °F 80% 30.24 in 10.0 mi Calm Calm - N/A   Overcast
11:15 AM 33.8 °F - 26.6 °F 75% 30.23 in 10.0 mi Calm Calm - N/A   Mostly Cloudy
11:35 AM 33.8 °F 29.6 °F 28.4 °F 81% 30.21 in 10.0 mi East 4.6 mph - N/A   Partly Cloudy
11:55 AM 33.8 °F 30.8 °F 28.4 °F 81% 30.20 in 10.0 mi East 3.5 mph - N/A   Scattered Clouds
12:15 PM 35.6 °F 30.7 °F 28.4 °F 75% 30.19 in 10.0 mi East 5.8 mph - N/A   Mostly Cloudy
12:35 PM 35.6 °F 29.9 °F 30.2 °F 81% 30.16 in 10.0 mi ESE 6.9 mph - N/A   Overcast
12:55 PM 35.6 °F 29.2 °F 30.2 °F 81% 30.15 in 10.0 mi South 8.1 mph - N/A   Mostly Cloudy
1:35 PM 37.4 °F 30.8 °F 32.0 °F 81% 30.12 in 10.0 mi SSE 9.2 mph - N/A   Overcast
1:55 PM 37.4 °F 32.8 °F 30.2 °F 75% 30.10 in 10.0 mi South 5.8 mph - N/A   Overcast
2:15 PM 35.6 °F 29.9 °F 28.4 °F 75% 30.10 in 10.0 mi South 6.9 mph - N/A   Overcast
2:35 PM 35.6 °F 29.9 °F 30.2 °F 81% 30.08 in 10.0 mi South 6.9 mph - N/A   Overcast
2:55 PM 35.6 °F 29.2 °F 28.4 °F 75% 30.07 in 10.0 mi South 8.1 mph - N/A   Overcast
3:15 PM 35.6 °F 29.9 °F 28.4 °F 75% 30.07 in 10.0 mi SSW 6.9 mph - N/A   Overcast
3:35 PM 35.6 °F 29.2 °F 28.4 °F 75% 30.05 in 10.0 mi South 8.1 mph - N/A   Overcast
3:55 PM 35.6 °F 29.9 °F 28.4 °F 75% 30.05 in 10.0 mi SSW 6.9 mph - N/A   Overcast
4:15 PM 33.8 °F 27.7 °F 28.4 °F 81% 30.05 in 10.0 mi South 6.9 mph - N/A   Overcast
4:35 PM 35.6 °F 30.7 °F 28.4 °F 75% 30.04 in 10.0 mi SSW 5.8 mph - N/A   Overcast
4:55 PM 35.6 °F 29.9 °F 28.4 °F 75% 30.03 in 10.0 mi SSW 6.9 mph - N/A   Overcast
5:15 PM 35.6 °F 28.6 °F 28.4 °F 75% 30.01 in 10.0 mi SSW 9.2 mph - N/A   Overcast
5:35 PM 33.8 °F 25.3 °F 30.2 °F 87% 30.01 in 10.0 mi SSW 11.5 mph - N/A   Overcast
5:55 PM 33.8 °F 27.0 °F 28.4 °F 81% 30.00 in 10.0 mi SSW 8.1 mph - N/A   Overcast
6:16 PM 33.8 °F 27.0 °F 28.4 °F 81% 29.99 in 10.0 mi SSW 8.1 mph - N/A   Overcast
6:35 PM 33.8 °F 25.8 °F 28.4 °F 81% 29.98 in 10.0 mi SSW 10.4 mph - N/A   Overcast
6:55 PM 33.8 °F 27.0 °F 28.4 °F 81% 29.98 in 10.0 mi South 8.1 mph - N/A   Overcast
7:15 PM 33.8 °F 27.0 °F 28.4 °F 81% 29.97 in 10.0 mi South 8.1 mph - N/A   Scattered Clouds
7:55 PM 32.0 °F 24.2 °F 28.4 °F 87% 29.94 in 10.0 mi South 9.2 mph - N/A   Clear
8:15 PM 33.8 °F 27.0 °F 28.4 °F 81% 29.93 in 10.0 mi South 8.1 mph - N/A   Clear
8:35 PM 32.0 °F 24.8 °F 28.4 °F 87% 29.91 in 10.0 mi South 8.1 mph - N/A   Clear
8:55 PM 30.2 °F 21.9 °F 28.4 °F 93% 29.89 in 10.0 mi South 9.2 mph - N/A   Clear
9:15 PM 30.2 °F 23.4 °F 28.4 °F 93% 29.88 in 10.0 mi South 6.9 mph - N/A   Clear
9:35 PM 30.2 °F 22.6 °F 26.6 °F 86% 29.87 in 10.0 mi SSW 8.1 mph - N/A   Clear
9:55 PM 32.0 °F 23.0 °F 28.4 °F 87% 29.86 in 10.0 mi SSW 11.5 mph - N/A   Clear
10:15 PM 35.6 °F - 28.4 °F 75% 29.87 in 10.0 mi Calm Calm - N/A   Clear
10:35 PM 33.8 °F - 30.2 °F 87% 29.86 in 10.0 mi Calm Calm - N/A   Clear
10:55 PM 33.8 °F 25.8 °F 28.4 °F 81% 29.85 in 10.0 mi SSW 10.4 mph - N/A   Clear
11:15 PM 33.8 °F 25.3 °F 28.4 °F 81% 29.83 in 10.0 mi SSW 11.5 mph - N/A   Clear
11:35 PM 33.8 °F 25.8 °F 28.4 °F 81% 29.83 in 10.0 mi SSW 10.4 mph - N/A   Clear
11:55 PM 33.8 °F 25.8 °F 28.4 °F 81% 29.83 in 10.0 mi SSW 10.4 mph - N/A   Clear